createdAt,value
2022-12-23T00:00:46.365Z,95362.22
2022-12-23T00:03:13.964Z,95357.19
2022-12-23T00:05:42.955Z,95353.81
2022-12-23T00:08:10.448Z,95353.25
2022-12-23T00:10:39.623Z,95352.25
2022-12-23T00:13:25.203Z,95350.22
2022-12-23T00:16:01.125Z,95343.91
2022-12-23T00:18:28.703Z,95344.88
2022-12-23T00:21:06.648Z,95332.09
2022-12-23T00:23:37.601Z,95334.88
2022-12-23T00:26:06.215Z,95323.75
2022-12-23T00:28:34.422Z,95315.56
2022-12-23T00:31:03.921Z,95315.34
2022-12-23T00:33:33.119Z,95317.44
2022-12-23T00:36:02.445Z,95312.94
2022-12-23T00:38:47.591Z,95314.50
2022-12-23T00:41:34.780Z,95303.88
2022-12-23T00:44:02.940Z,95297.03
2022-12-23T00:46:30.596Z,95300.22
2022-12-23T00:49:15.649Z,95298.69
2022-12-23T00:51:44.478Z,95304.53
2022-12-23T00:54:12.121Z,95302.53
2022-12-23T00:56:39.724Z,95294.31
2022-12-23T00:59:07.334Z,95299.25
2022-12-23T01:01:52.555Z,95295.81
2022-12-23T01:04:38.292Z,95313.94
2022-12-23T01:07:07.668Z,95312.31
2022-12-23T01:09:35.628Z,95302.69
2022-12-23T01:12:03.225Z,95302.38
2022-12-23T01:14:31.294Z,95302.19
2022-12-23T01:16:58.874Z,95302.41
2022-12-23T01:19:26.531Z,95296.72
2022-12-23T01:21:54.036Z,95300.63
2022-12-23T01:24:22.938Z,95304.78
2022-12-23T01:26:50.430Z,95304.97
2022-12-23T01:29:18.023Z,95300.34
2022-12-23T01:31:45.569Z,95287.09
2022-12-23T01:34:13.145Z,95290.38
2022-12-23T01:36:40.637Z,95287.59
2022-12-23T01:39:08.137Z,95291.41
2022-12-23T01:41:54.369Z,95276.38
2022-12-23T01:44:50.897Z,95295.06
2022-12-23T01:47:23.204Z,95288.78
2022-12-23T01:49:54.095Z,95285.09
2022-12-23T01:52:22.442Z,95282.22
2022-12-23T01:54:50.225Z,95280.22
2022-12-23T01:57:19.082Z,95291.16
2022-12-23T02:00:04.283Z,95290.50
2022-12-23T02:02:53.047Z,95285.44
2022-12-23T02:05:20.706Z,95279.59
2022-12-23T02:08:05.817Z,95283.44
2022-12-23T02:10:43.140Z,95284.91
2022-12-23T02:13:17.515Z,95280.78
2022-12-23T02:16:09.250Z,95282.16
2022-12-23T02:18:58.202Z,95286.69
2022-12-23T02:21:38.580Z,95297.19
2022-12-23T02:24:31.603Z,95294.97
2022-12-23T02:27:11.455Z,95295.72
2022-12-23T02:30:06.414Z,95297.81
2022-12-23T02:32:50.967Z,95296.25
2022-12-23T02:35:28.726Z,95298.34
2022-12-23T02:38:02.920Z,95301.84
2022-12-23T02:40:39.663Z,95289.03
2022-12-23T02:43:14.538Z,95281.13
2022-12-23T02:45:47.130Z,95282.53
2022-12-23T02:48:23.035Z,95285.19
2022-12-23T02:50:54.353Z,95286.53
2022-12-23T02:53:28.242Z,95280.22
2022-12-23T02:55:58.051Z,95273.13
2022-12-23T02:58:30.923Z,95278.44
2022-12-23T03:01:01.459Z,95277.78
2022-12-23T03:03:30.416Z,95275.97
2022-12-23T03:05:58.108Z,95281.81
2022-12-23T03:08:30.798Z,95278.34
2022-12-23T03:11:06.717Z,95271.94
2022-12-23T03:13:47.341Z,95272.72
2022-12-23T03:16:21.973Z,95279.78
2022-12-23T03:19:05.374Z,95278.50
2022-12-23T03:21:38.885Z,95265.59
2022-12-23T03:24:16.371Z,95266.19
2022-12-23T03:26:50.517Z,95263.50
2022-12-23T03:29:23.113Z,95262.78
2022-12-23T03:31:52.747Z,95266.75
2022-12-23T03:34:26.299Z,95264.84
2022-12-23T03:36:58.162Z,95268.81
2022-12-23T03:39:30.836Z,95266.25
2022-12-23T03:42:03.025Z,95260.03
2022-12-23T03:44:33.647Z,95262.31
2022-12-23T03:47:06.850Z,95266.63
2022-12-23T03:49:41.256Z,95257.69
2022-12-23T03:52:17.283Z,95264.03
2022-12-23T03:54:52.401Z,95260.03
2022-12-23T03:57:21.502Z,95266.53
2022-12-23T03:59:51.557Z,95271.13
2022-12-23T04:02:25.669Z,95270.47
2022-12-23T04:05:11.419Z,95269.72
2022-12-23T04:07:43.350Z,95276.84
2022-12-23T04:10:12.547Z,95273.84
2022-12-23T04:12:41.106Z,95268.13
2022-12-23T04:15:12.621Z,95270.97
2022-12-23T04:17:40.748Z,95274.13
2022-12-23T04:20:11.331Z,95277.16
2022-12-23T04:22:39.516Z,95272.84
2022-12-23T04:25:07.823Z,95274.50
2022-12-23T04:27:35.311Z,95282.19
2022-12-23T04:30:02.882Z,95276.03
2022-12-23T04:32:30.367Z,95277.88
2022-12-23T04:34:57.852Z,95281.22
2022-12-23T04:37:26.819Z,95281.22
2022-12-23T04:39:54.300Z,95278.09
2022-12-23T04:42:21.960Z,95280.84
2022-12-23T04:44:49.512Z,95276.81
2022-12-23T04:47:17.009Z,95291.00
2022-12-23T04:49:44.531Z,95284.56
2022-12-23T04:52:12.009Z,95289.44
2022-12-23T04:54:45.977Z,95295.59
2022-12-23T04:57:14.070Z,95280.41
2022-12-23T04:59:41.634Z,95293.28
2022-12-23T05:02:09.266Z,95296.06
2022-12-23T05:04:36.916Z,95295.44
2022-12-23T05:07:04.466Z,95281.72
2022-12-23T05:09:31.950Z,95288.94
2022-12-23T05:12:00.786Z,95287.88
2022-12-23T05:14:28.286Z,95291.59
2022-12-23T05:16:55.839Z,95296.94
2022-12-23T05:19:23.446Z,95300.38
2022-12-23T05:21:50.936Z,95296.09
2022-12-23T05:24:18.425Z,95300.19
2022-12-23T05:26:50.746Z,95293.97
2022-12-23T05:29:21.779Z,95308.88
2022-12-23T05:31:49.288Z,95311.25
2022-12-23T05:34:16.773Z,95309.44
2022-12-23T05:36:44.267Z,95311.59
2022-12-23T05:39:11.870Z,95325.47
2022-12-23T05:41:39.414Z,95331.34
2022-12-23T05:44:06.977Z,95331.63
2022-12-23T05:46:36.136Z,95336.00
2022-12-23T05:49:03.708Z,95333.25
2022-12-23T05:51:31.486Z,95339.09
2022-12-23T05:53:59.071Z,95338.84
2022-12-23T05:56:26.558Z,95340.56
2022-12-23T05:58:54.258Z,95341.00
2022-12-23T06:01:21.751Z,95342.47
2022-12-23T06:03:50.653Z,95351.34
2022-12-23T06:06:18.228Z,95345.88
2022-12-23T06:08:45.704Z,95350.81
2022-12-23T06:11:13.734Z,95350.34
2022-12-23T06:13:41.215Z,95357.66
2022-12-23T06:16:08.840Z,95355.09
2022-12-23T06:18:36.412Z,95355.00
2022-12-23T06:21:05.728Z,95356.84
2022-12-23T06:23:33.202Z,95354.75
2022-12-23T06:26:01.196Z,95356.38
2022-12-23T06:28:29.293Z,95358.28
2022-12-23T06:30:57.212Z,95366.88
2022-12-23T06:33:25.558Z,95377.50
2022-12-23T06:35:53.079Z,95384.19
2022-12-23T06:38:21.924Z,95385.97
2022-12-23T06:40:49.462Z,95394.78
2022-12-23T06:43:16.990Z,95405.97
2022-12-23T06:45:47.597Z,95398.56
2022-12-23T06:48:15.489Z,95410.19
2022-12-23T06:50:43.499Z,95398.31
2022-12-23T06:53:11.053Z,95410.44
2022-12-23T06:55:40.025Z,95411.25
2022-12-23T06:58:07.886Z,95410.69
2022-12-23T07:00:35.372Z,95405.66
2022-12-23T07:03:02.937Z,95410.25
2022-12-23T07:05:36.697Z,95405.28
2022-12-23T07:08:04.795Z,95417.28
2022-12-23T07:10:32.285Z,95407.41
2022-12-23T07:13:02.403Z,95419.22
2022-12-23T07:15:29.891Z,95420.06
2022-12-23T07:17:57.368Z,95439.34
2022-12-23T07:20:24.900Z,95438.44
2022-12-23T07:22:54.915Z,95439.28
2022-12-23T07:25:22.581Z,95443.31
2022-12-23T07:27:53.464Z,95457.53
2022-12-23T07:30:22.743Z,95473.53
2022-12-23T07:32:50.563Z,95474.38
2022-12-23T07:35:18.819Z,95484.81
2022-12-23T07:37:46.314Z,95496.47
2022-12-23T07:40:14.832Z,95494.28
2022-12-23T07:42:45.575Z,95495.41
2022-12-23T07:45:13.877Z,95503.38
2022-12-23T07:47:43.236Z,95505.78
2022-12-23T07:50:11.365Z,95506.66
2022-12-23T07:52:38.886Z,95494.81
2022-12-23T07:55:07.333Z,95484.53
2022-12-23T07:57:37.767Z,95481.94
2022-12-23T08:00:07.989Z,95474.81
2022-12-23T08:02:35.628Z,95485.72
2022-12-23T08:05:05.260Z,95481.59
2022-12-23T08:07:32.812Z,95488.28
2022-12-23T08:10:00.416Z,95487.19
2022-12-23T08:12:27.918Z,95484.75
2022-12-23T08:14:55.415Z,95485.63
2022-12-23T08:17:23.346Z,95485.78
2022-12-23T08:19:50.950Z,95502.78
2022-12-23T08:22:19.765Z,95501.00
2022-12-23T08:24:47.286Z,95499.56
2022-12-23T08:27:16.180Z,95497.91
2022-12-23T08:29:44.026Z,95481.44
2022-12-23T08:32:11.784Z,95477.03
2022-12-23T08:34:39.321Z,95486.91
2022-12-23T08:37:06.810Z,95476.63
2022-12-23T08:39:35.633Z,95480.72
2022-12-23T08:42:03.237Z,95480.50
2022-12-23T08:44:32.495Z,95477.44
2022-12-23T08:47:00.026Z,95477.97
2022-12-23T08:49:27.549Z,95476.13
2022-12-23T08:51:55.043Z,95478.94
2022-12-23T08:54:23.737Z,95485.56
2022-12-23T08:56:52.583Z,95492.41
2022-12-23T08:59:20.223Z,95500.50
2022-12-23T09:01:49.042Z,95503.56
2022-12-23T09:04:16.862Z,95511.34
2022-12-23T09:06:45.406Z,95517.44
2022-12-23T09:09:15.408Z,95528.31
2022-12-23T09:11:43.115Z,95529.50
2022-12-23T09:14:13.265Z,95532.16
2022-12-23T09:16:40.809Z,95527.13
2022-12-23T09:19:08.637Z,95540.91
2022-12-23T09:21:36.423Z,95534.56
2022-12-23T09:24:04.027Z,95526.97
2022-12-23T09:26:32.321Z,95535.44
2022-12-23T09:28:59.976Z,95528.56
2022-12-23T09:31:36.091Z,95522.91
2022-12-23T09:34:04.955Z,95521.94
2022-12-23T09:36:32.736Z,95519.34
2022-12-23T09:39:00.464Z,95526.09
2022-12-23T09:41:44.069Z,95526.31
2022-12-23T09:44:33.433Z,95523.47
2022-12-23T09:47:05.525Z,95535.25
2022-12-23T09:49:34.785Z,95541.44
2022-12-23T09:52:05.991Z,95540.28
2022-12-23T09:54:41.994Z,95535.72
2022-12-23T09:57:18.943Z,95543.66
2022-12-23T09:59:59.235Z,95538.34
2022-12-23T10:02:39.860Z,95535.69
2022-12-23T10:05:21.047Z,95528.56
2022-12-23T10:07:53.375Z,95532.94
2022-12-23T10:10:31.506Z,95533.41
2022-12-23T10:13:01.366Z,95526.19
2022-12-23T10:15:33.650Z,95525.06
2022-12-23T10:18:07.994Z,95517.88
2022-12-23T10:20:42.353Z,95516.13
2022-12-23T10:23:16.971Z,95513.06
2022-12-23T10:25:50.976Z,95515.97
2022-12-23T10:28:19.156Z,95510.03
2022-12-23T10:31:11.044Z,95511.31
2022-12-23T10:33:51.721Z,95497.72
2022-12-23T10:36:28.594Z,95502.31
2022-12-23T10:39:04.118Z,95494.56
2022-12-23T10:41:39.989Z,95496.81
2022-12-23T10:44:42.643Z,95491.34
2022-12-23T10:47:20.689Z,95485.03
2022-12-23T10:49:58.927Z,95484.09
2022-12-23T10:52:30.777Z,95491.78
2022-12-23T10:54:58.288Z,95492.47
2022-12-23T10:57:25.991Z,95483.28
2022-12-23T10:59:53.611Z,95476.53
2022-12-23T11:02:46.096Z,95479.16
2022-12-23T11:05:20.561Z,95467.69
2022-12-23T11:07:48.172Z,95472.03
2022-12-23T11:10:19.240Z,95474.13
2022-12-23T11:12:49.184Z,95479.03
2022-12-23T11:15:31.053Z,95476.72
2022-12-23T11:18:00.639Z,95480.34
2022-12-23T11:20:30.344Z,95486.94
2022-12-23T11:23:01.678Z,95490.75
2022-12-23T11:25:35.929Z,95491.94
2022-12-23T11:28:08.565Z,95476.50
2022-12-23T11:30:40.110Z,95480.88
2022-12-23T11:33:17.454Z,95487.78
2022-12-23T11:35:46.509Z,95484.44
2022-12-23T11:38:15.593Z,95487.47
2022-12-23T11:40:47.936Z,95481.97
2022-12-23T11:43:17.261Z,95483.66
2022-12-23T11:45:44.969Z,95482.03
2022-12-23T11:48:28.642Z,95482.63
2022-12-23T11:51:01.685Z,95469.38
2022-12-23T11:53:30.065Z,95474.28
2022-12-23T11:56:00.570Z,95461.06
2022-12-23T11:58:30.628Z,95464.13
2022-12-23T12:01:00.625Z,95463.19
2022-12-23T12:03:32.824Z,95455.94
2022-12-23T12:06:04.513Z,95447.94
2022-12-23T12:08:34.872Z,95445.59
2022-12-23T12:11:07.480Z,95459.38
2022-12-23T12:13:40.475Z,95454.78
2022-12-23T12:16:21.999Z,95458.44
2022-12-23T12:18:55.387Z,95457.00
2022-12-23T12:21:27.242Z,95447.44
2022-12-23T12:24:17.961Z,95444.53
2022-12-23T12:26:50.977Z,95449.50
2022-12-23T12:29:23.567Z,95441.56
2022-12-23T12:31:53.306Z,95442.47
2022-12-23T12:34:33.188Z,95437.97
2022-12-23T12:37:08.677Z,95424.56
2022-12-23T12:39:42.852Z,95416.81
2022-12-23T12:42:15.669Z,95421.19
2022-12-23T12:44:55.314Z,95412.56
2022-12-23T12:47:52.727Z,95419.72
2022-12-23T12:50:19.193Z,95411.91
2022-12-23T12:52:48.028Z,95403.78
2022-12-23T12:55:20.985Z,95404.63
2022-12-23T12:57:48.508Z,95398.91
2022-12-23T13:00:17.777Z,95399.75
2022-12-23T13:03:02.196Z,95384.31
2022-12-23T13:05:54.438Z,95396.84
2022-12-23T13:08:45.108Z,95388.22
2022-12-23T13:11:24.807Z,95384.09
2022-12-23T13:14:03.459Z,95368.09
2022-12-23T13:16:41.417Z,95376.69
2022-12-23T13:19:20.235Z,95366.81
2022-12-23T13:21:53.782Z,95378.31
2022-12-23T13:24:27.850Z,95377.91
2022-12-23T13:27:04.054Z,95364.41
2022-12-23T13:29:54.587Z,95367.28
2022-12-23T13:32:38.289Z,95361.50
2022-12-23T13:35:20.562Z,95359.34
2022-12-23T13:37:58.318Z,95356.09
2022-12-23T13:40:38.803Z,95351.91
2022-12-23T13:43:13.510Z,95350.78
2022-12-23T13:45:42.325Z,95345.28
2022-12-23T13:48:32.688Z,95348.25
2022-12-23T13:51:08.531Z,95343.22
2022-12-23T13:53:50.585Z,95333.09
2022-12-23T13:56:30.196Z,95329.66
2022-12-23T13:58:58.641Z,95316.38
2022-12-23T14:01:43.558Z,95318.59
2022-12-23T14:04:32.784Z,95313.69
2022-12-23T14:07:02.089Z,95322.13
2022-12-23T14:09:33.158Z,95315.38
2022-12-23T14:12:14.234Z,95314.75
2022-12-23T14:14:50.679Z,95306.34
2022-12-23T14:17:29.707Z,95295.25
2022-12-23T14:20:08.228Z,95289.22
2022-12-23T14:22:46.151Z,95298.50
2022-12-23T14:25:38.341Z,95296.06
2022-12-23T14:28:21.582Z,95292.16
2022-12-23T14:30:49.399Z,95282.00
2022-12-23T14:33:24.681Z,95276.66
2022-12-23T14:35:58.586Z,95285.34
2022-12-23T14:38:31.483Z,95300.56
2022-12-23T14:41:23.645Z,95286.13
2022-12-23T14:43:59.875Z,95278.63
2022-12-23T14:46:58.607Z,95272.09
2022-12-23T14:49:44.225Z,95273.31
2022-12-23T14:52:47.856Z,95263.16
2022-12-23T14:55:44.601Z,95257.88
2022-12-23T14:58:36.341Z,95263.56
2022-12-23T15:01:11.786Z,95256.03
2022-12-23T15:03:45.964Z,95252.38
2022-12-23T15:06:18.400Z,95262.47
2022-12-23T15:08:47.231Z,95252.72
2022-12-23T15:11:22.289Z,95261.19
2022-12-23T15:13:51.874Z,95260.63
2022-12-23T15:16:27.458Z,95248.34
2022-12-23T15:18:55.963Z,95251.38
2022-12-23T15:21:29.524Z,95256.50
2022-12-23T15:23:57.052Z,95254.56
2022-12-23T15:26:27.704Z,95248.97
2022-12-23T15:28:56.088Z,95244.72
2022-12-23T15:31:29.709Z,95251.75
2022-12-23T15:34:04.032Z,95248.00
2022-12-23T15:36:36.081Z,95244.53
2022-12-23T15:39:09.854Z,95248.09
2022-12-23T15:41:43.507Z,95258.47
2022-12-23T15:44:16.387Z,95236.00
2022-12-23T15:46:45.460Z,95249.59
2022-12-23T15:49:13.578Z,95255.59
2022-12-23T15:54:37.082Z,95232.66
2022-12-23T15:57:05.759Z,95228.94
2022-12-23T15:59:35.909Z,95227.72
2022-12-23T16:02:40.457Z,95221.28
2022-12-23T16:05:01.508Z,95225.56
2022-12-23T16:07:34.622Z,95234.91
2022-12-23T16:10:04.522Z,95221.47
2022-12-23T16:12:35.237Z,95217.88
2022-12-23T16:15:02.751Z,95218.25
2022-12-23T16:17:36.202Z,95221.56
2022-12-23T16:20:20.032Z,95205.47
2022-12-23T16:22:50.390Z,95210.84
2022-12-23T16:25:22.286Z,95198.81
2022-12-23T16:27:55.821Z,95196.94
2022-12-23T16:30:26.439Z,95195.84
2022-12-23T16:32:57.183Z,95190.53
2022-12-23T16:35:30.753Z,95189.28
2022-12-23T16:38:00.614Z,95196.31
2022-12-23T16:40:28.105Z,95187.19
2022-12-23T16:42:55.700Z,95192.63
2022-12-23T16:45:23.176Z,95183.47
2022-12-23T16:47:55.591Z,95181.50
2022-12-23T16:50:23.163Z,95189.84
2022-12-23T16:52:50.772Z,95198.72
2022-12-23T16:55:20.291Z,95186.91
2022-12-23T16:57:47.776Z,95179.84
2022-12-23T17:00:19.370Z,95179.00
2022-12-23T17:02:48.647Z,95183.03
2022-12-23T17:05:18.769Z,95178.19
2022-12-23T17:07:46.634Z,95181.03
2022-12-23T17:10:16.449Z,95181.63
2022-12-23T17:12:44.947Z,95180.34
2022-12-23T17:15:17.981Z,95179.25
2022-12-23T17:17:45.633Z,95178.34
2022-12-23T17:20:13.812Z,95188.72
2022-12-23T17:22:44.626Z,95180.28
2022-12-23T17:25:14.223Z,95188.78
2022-12-23T17:27:41.777Z,95195.13
2022-12-23T17:30:15.769Z,95184.09
2022-12-23T17:32:44.055Z,95190.00
2022-12-23T17:35:15.928Z,95177.97
2022-12-23T17:37:44.750Z,95182.03
2022-12-23T17:40:13.121Z,95180.28
2022-12-23T17:42:41.499Z,95177.13
2022-12-23T17:45:22.369Z,95167.22
2022-12-23T17:47:50.034Z,95173.94
2022-12-23T17:50:17.688Z,95178.53
2022-12-23T17:52:46.565Z,95183.41
2022-12-23T17:55:19.823Z,95182.03
2022-12-23T17:57:47.658Z,95181.81
2022-12-23T18:00:26.527Z,95181.03
2022-12-23T18:02:57.323Z,95185.44
2022-12-23T18:05:26.390Z,95185.06
2022-12-23T18:07:57.091Z,95169.50
2022-12-23T18:10:27.030Z,95175.06
2022-12-23T18:12:57.033Z,95191.25
2022-12-23T18:15:26.220Z,95171.78
2022-12-23T18:17:54.297Z,95181.00
2022-12-23T18:20:24.443Z,95181.50
2022-12-23T18:22:53.775Z,95168.38
2022-12-23T18:25:25.017Z,95177.69
2022-12-23T18:27:53.758Z,95167.22
2022-12-23T18:30:22.686Z,95173.53
2022-12-23T18:32:50.224Z,95174.94
2022-12-23T18:35:28.129Z,95185.19
2022-12-23T18:37:56.111Z,95183.81
2022-12-23T18:40:29.332Z,95179.09
2022-12-23T18:42:59.983Z,95168.63
2022-12-23T18:45:31.840Z,95185.81
2022-12-23T18:48:00.294Z,95171.69
2022-12-23T18:50:28.693Z,95181.50
2022-12-23T18:52:56.408Z,95187.22
2022-12-23T18:55:25.800Z,95185.19
2022-12-23T18:57:53.326Z,95186.03
2022-12-23T19:00:23.438Z,95179.34
2022-12-23T19:02:52.624Z,95176.56
2022-12-23T19:05:22.689Z,95174.31
2022-12-23T19:07:51.350Z,95166.88
2022-12-23T19:10:20.565Z,95183.88
2022-12-23T19:12:49.806Z,95192.81
2022-12-23T19:15:17.650Z,95189.41
2022-12-23T19:17:45.183Z,95192.72
2022-12-23T19:20:15.099Z,95199.19
2022-12-23T19:22:42.747Z,95190.25
2022-12-23T19:25:12.803Z,95199.19
2022-12-23T19:27:40.666Z,95206.97
2022-12-23T19:30:14.701Z,95197.97
2022-12-23T19:32:42.194Z,95205.75
2022-12-23T19:35:13.646Z,95211.72
2022-12-23T19:37:41.197Z,95215.78
2022-12-23T19:40:10.359Z,95225.69
2022-12-23T19:42:38.433Z,95234.91
2022-12-23T19:45:07.743Z,95222.06
2022-12-23T19:47:36.784Z,95221.03
2022-12-23T19:50:05.378Z,95218.44
2022-12-23T19:52:32.874Z,95230.84
2022-12-23T19:55:00.371Z,95232.81
2022-12-23T19:57:27.938Z,95237.72
2022-12-23T19:59:55.439Z,95230.16
2022-12-23T20:02:23.443Z,95227.09
2022-12-23T20:04:52.305Z,95221.66
2022-12-23T20:07:19.839Z,95221.03
2022-12-23T20:09:47.316Z,95239.94
2022-12-23T20:12:14.830Z,95234.31
2022-12-23T20:14:42.361Z,95232.28
2022-12-23T20:17:10.158Z,95243.63
2022-12-23T20:19:45.468Z,95244.13
2022-12-23T20:22:14.825Z,95231.13
2022-12-23T20:24:42.333Z,95237.00
2022-12-23T20:27:12.135Z,95238.16
2022-12-23T20:29:41.449Z,95247.72
2022-12-23T20:32:08.954Z,95252.44
2022-12-23T20:34:39.630Z,95247.75
2022-12-23T20:37:07.816Z,95258.47
2022-12-23T20:39:36.718Z,95247.91
2022-12-23T20:42:05.004Z,95266.22
2022-12-23T20:44:35.137Z,95267.38
2022-12-23T20:47:04.041Z,95274.88
2022-12-23T20:49:32.093Z,95266.69
2022-12-23T20:51:59.592Z,95269.88
2022-12-23T20:54:32.772Z,95275.91
2022-12-23T20:57:03.705Z,95275.09
2022-12-23T20:59:31.346Z,95278.16
2022-12-23T21:01:59.324Z,95273.69
2022-12-23T21:04:27.223Z,95288.13
2022-12-23T21:06:54.759Z,95286.63
2022-12-23T21:09:22.311Z,95272.34
2022-12-23T21:11:50.610Z,95266.13
2022-12-23T21:14:19.455Z,95275.56
2022-12-23T21:16:47.088Z,95278.78
2022-12-23T21:19:16.986Z,95296.66
2022-12-23T21:21:45.008Z,95280.06
2022-12-23T21:24:13.059Z,95284.72
2022-12-23T21:26:40.585Z,95295.25
2022-12-23T21:29:10.167Z,95286.84
2022-12-23T21:31:41.493Z,95317.13
2022-12-23T21:34:09.514Z,95326.22
2022-12-23T21:36:39.264Z,95326.22
2022-12-23T21:39:07.713Z,95321.00
2022-12-23T21:41:38.058Z,95317.56
2022-12-23T21:44:06.616Z,95334.81
2022-12-23T21:46:34.478Z,95354.16
2022-12-23T21:49:03.497Z,95354.59
2022-12-23T21:51:39.526Z,95351.94
2022-12-23T21:54:08.699Z,95372.38
2022-12-23T21:56:36.454Z,95374.41
2022-12-23T21:59:06.454Z,95377.09
2022-12-23T22:01:34.095Z,95364.53
2022-12-23T22:04:03.773Z,95365.06
2022-12-23T22:06:33.175Z,95353.50
2022-12-23T22:09:00.731Z,95355.88
2022-12-23T22:11:31.276Z,95360.28
2022-12-23T22:14:00.314Z,95358.06
2022-12-23T22:16:29.920Z,95369.63
2022-12-23T22:18:58.646Z,95369.38
2022-12-23T22:21:28.807Z,95376.84
2022-12-23T22:23:57.107Z,95381.53
2022-12-23T22:26:26.462Z,95375.31
2022-12-23T22:28:55.234Z,95383.25
2022-12-23T22:31:27.393Z,95385.31
2022-12-23T22:33:54.979Z,95385.66
2022-12-23T22:36:22.589Z,95393.84
2022-12-23T22:38:55.598Z,95401.88
2022-12-23T22:41:24.250Z,95408.72
2022-12-23T22:43:52.205Z,95409.03
2022-12-23T22:46:19.947Z,95413.19
2022-12-23T22:48:47.622Z,95406.31
2022-12-23T22:51:18.452Z,95407.69
2022-12-23T22:53:46.520Z,95413.16
2022-12-23T22:56:18.163Z,95424.75
2022-12-23T22:58:45.858Z,95441.78
2022-12-23T23:01:22.457Z,95434.41
2022-12-23T23:03:56.556Z,95438.34
2022-12-23T23:06:25.085Z,95440.41
2022-12-23T23:08:52.799Z,95447.81
2022-12-23T23:11:22.533Z,95446.66
2022-12-23T23:13:50.047Z,95443.56
2022-12-23T23:16:17.601Z,95448.56
2022-12-23T23:18:47.400Z,95455.53
2022-12-23T23:21:15.671Z,95446.56
2022-12-23T23:23:43.229Z,95450.50
2022-12-23T23:26:11.526Z,95452.97
2022-12-23T23:28:40.982Z,95455.63
2022-12-23T23:31:40.430Z,95467.69
2022-12-23T23:33:58.112Z,95471.16
2022-12-23T23:36:25.886Z,95469.53
2022-12-23T23:38:53.549Z,95474.91
2022-12-23T23:41:23.861Z,95482.22
2022-12-23T23:43:53.164Z,95483.53
2022-12-23T23:46:20.805Z,95499.81
2022-12-23T23:48:48.426Z,95488.00
2022-12-23T23:51:16.038Z,95503.06
2022-12-23T23:53:43.574Z,95515.19
2022-12-23T23:56:11.267Z,95509.41
2022-12-23T23:58:38.953Z,95513.72
